Smyrna Airport

About
Name: Smyrna Airport
Identifier:  MQY/KMQY
Local Time:  25. Aug 23:54 CDT
Location
Statistics
Flights per Day:
0 flights
Distance: 572km (355mi)
Flights delayed:
66% (0 flights per day delayed)
Delay Average: 250 minutes
Current Weather
 27 C (Humidity: 74%)
  9kt (16km/h / 10mph) from 160°
  Overcast at 2,000 feet (609 meter)
  16km (10 mi.)
 METAR KMQY 251556Z 16009KT 10SM OVC020 27/22 A3004 RMK AO2 SLP056 T02670222

Current Delays

Departures
N/A
Arrivals
N/A

Destinations

Top Destinations
Airport Flights
per week
Seats
per week
  Louisville (SDF) 6 - 0 0
  Memphis (MEM) 3 - 0 0
  Evansville (EVV) 2 - 0 0
  Indianapolis (IND) 2 - 0 0
  Atlanta (QQR) 2 - 0 0
  Nashville (BNA) 1 - 0 0
  Parkersburg (PKB) 1 - 0 0
  Rock Hill (RKH) 1 - 0 0
  Olive Branch (OLV) 1 - 0 0
  Atlanta (PDK) 1 - 0 0
  Detroit (YIP) 1 - 0 0

Airlines & Planes

Top Airlines
Airline Flights
per Day
Seats
per Day
  Nolinor Aviation 1 -
  Mountain Air Cargo 0 0
  Ameriflight 0 -
  Flybe Nordic 0 -
  National Airlines 0 -
Lao Central Airlines 0 -
Nordwind Airlines 0 -
  Federal Express (FedEx) 0 0
Jet Charter Inc ( Franklin Lakes Nj ) 0 -
  Skyway Enterprises 0 -
Top Plane Types
Model Flights Seats
Cessna C208 1.2/day - -1.1333333333333333
Beech 58 0.7/day - 0
Beech 1900D 0.6/day - 0
Piper PA28-181 0.4/day - 0
Pilatus PC-12 0.4/day - 0
Embraer ERJ135 0.4/day - 0
Cessna C172 0.4/day - 0
Fairchild SA227-DC Metro 23 0.3/day - 0
Bombardier CRJ200 0.2/day 5/day 5